Time;durP1;ratioP1;P1;durP2;ratioP2;P2;SDS_P1;SDS_P2;PMS_P1;PMS_P2;Temp;Humidity;BMP_temperature;BMP_pressure;BME280_temperature;BME280_humidity;BME280_pressure;Samples;Min_cycle;Max_cycle;Signal;HPM_P1;HPM_P2
2022/01/16 00:04:28;;;;;;;111.13;47.30;;;;;;;-1.19;100.00;102246.00;5012568;28;20034;-70
2022/01/16 00:06:54;;;;;;;103.88;47.90;;;;;;;-1.27;100.00;102241.91;5012048;28;20050;-70
2022/01/16 00:09:19;;;;;;;100.93;46.15;;;;;;;-1.28;100.00;102240.09;5012133;28;20111;-71
2022/01/16 00:11:45;;;;;;;119.22;49.78;;;;;;;-1.32;100.00;102248.47;5012447;28;20176;-71
2022/01/16 00:14:11;;;;;;;102.80;46.20;;;;;;;-1.32;100.00;102243.28;5012024;28;20440;-73
2022/01/16 00:16:36;;;;;;;121.20;47.53;;;;;;;-1.32;100.00;102248.47;5012222;28;20096;-72
2022/01/16 00:19:02;;;;;;;114.30;50.17;;;;;;;-1.28;100.00;102253.09;5012014;28;20030;-72
2022/01/16 00:21:32;;;;;;;120.65;49.35;;;;;;;-1.24;100.00;102242.16;5011839;28;20042;-72
2022/01/16 00:23:58;;;;;;;109.72;48.78;;;;;;;-1.21;100.00;102239.78;5012166;28;20587;-72
2022/01/16 00:26:23;;;;;;;106.97;48.63;;;;;;;-1.17;100.00;102231.44;5012124;28;20030;-72
2022/01/16 00:28:50;;;;;;;104.30;47.05;;;;;;;-1.18;100.00;102232.25;5011780;28;20037;-72
2022/01/16 00:31:16;;;;;;;97.53;46.42;;;;;;;-1.14;100.00;102208.28;5012012;28;20108;-72
2022/01/16 00:33:44;;;;;;;101.32;46.35;;;;;;;-1.14;100.00;102217.78;5011728;28;20030;-72
2022/01/16 00:36:11;;;;;;;100.88;47.47;;;;;;;-1.15;100.00;102227.28;5011861;28;20025;-72
2022/01/16 00:38:43;;;;;;;101.53;48.10;;;;;;;-1.10;100.00;102230.22;5011943;28;20038;-72
2022/01/16 00:41:08;;;;;;;103.57;48.65;;;;;;;-1.08;100.00;102234.72;5037662;28;20174;-72
2022/01/16 00:43:33;;;;;;;110.32;48.35;;;;;;;-1.03;100.00;102222.09;5053426;28;20048;-72
2022/01/16 00:45:59;;;;;;;101.90;47.47;;;;;;;-0.98;100.00;102225.91;5052916;28;20029;-72
2022/01/16 00:48:24;;;;;;;102.45;48.63;;;;;;;-0.98;100.00;102220.72;5053759;28;20025;-72
2022/01/16 00:50:49;;;;;;;98.43;48.50;;;;;;;-0.96;100.00;102224.34;5053348;28;20023;-72
2022/01/16 00:53:15;;;;;;;96.85;47.00;;;;;;;-0.91;100.00;102242.84;5053426;28;20036;-72
2022/01/16 00:55:41;;;;;;;98.75;47.08;;;;;;;-0.89;100.00;102236.97;5053195;28;20490;-73
2022/01/16 00:58:06;;;;;;;95.97;46.85;;;;;;;-0.85;100.00;102204.34;5053080;28;20024;-72
2022/01/16 01:00:32;;;;;;;107.47;49.17;;;;;;;-0.86;100.00;102199.91;5053096;28;20036;-71
2022/01/16 01:03:02;;;;;;;104.15;48.90;;;;;;;-0.90;100.00;102182.34;5053056;28;20028;-72
2022/01/16 01:05:27;;;;;;;104.30;48.47;;;;;;;-0.93;100.00;102202.91;5050403;28;20029;-70
2022/01/16 01:07:54;;;;;;;110.63;52.45;;;;;;;-0.85;100.00;102199.13;5073144;28;20061;-70
2022/01/16 01:10:19;;;;;;;104.00;49.05;;;;;;;-0.83;100.00;102205.38;5072767;28;20024;-70
2022/01/16 01:12:56;;;;;;;116.53;50.45;;;;;;;-0.83;100.00;102209.63;5072688;28;20020;-70
2022/01/16 01:15:29;;;;;;;112.32;49.85;;;;;;;-0.77;100.00;102215.25;5073045;28;20032;-70
2022/01/16 01:17:54;;;;;;;;;;;;;;;-0.72;100.00;102201.81;5073598;28;20032;-71
2022/01/16 01:20:22;;;;;;;114.75;52.67;;;;;;;-0.77;100.00;102195.41;5073078;28;19920;-70
2022/01/16 01:22:50;;;;;;;115.57;51.40;;;;;;;-0.77;100.00;102195.41;5072615;28;20033;-70
2022/01/16 01:25:16;;;;;;;112.53;51.08;;;;;;;-0.77;100.00;102185.03;5073005;28;20030;-70
2022/01/16 01:27:43;;;;;;;107.95;48.03;;;;;;;-0.82;100.00;102198.47;5072604;28;20031;-70
2022/01/16 01:30:10;;;;;;;115.30;51.78;;;;;;;-0.87;100.00;102198.13;5073069;28;20074;-70
2022/01/16 01:32:37;;;;;;;119.00;51.42;;;;;;;-0.84;100.00;102207.84;5071432;28;20071;-70
2022/01/16 01:35:05;;;;;;;123.03;50.67;;;;;;;-0.84;100.00;102192.28;5072503;28;20526;-70
2022/01/16 01:37:30;;;;;;;125.97;51.78;;;;;;;-0.82;100.00;102147.41;5072595;28;20021;-70
2022/01/16 01:39:55;;;;;;;129.68;51.25;;;;;;;-0.83;100.00;102121.34;5072759;28;20020;-70
2022/01/16 01:42:23;;;;;;;140.05;53.55;;;;;;;-0.84;100.00;102119.56;5072559;28;20044;-70
2022/01/16 01:53:00;;;;;;;159.93;57.83;;;;;;;-0.83;100.00;102168.09;5069036;28;20162;-70
2022/01/16 01:55:26;;;;;;;169.48;59.60;;;;;;;-0.80;100.00;102178.69;5072614;28;20034;-70
2022/01/16 01:57:52;;;;;;;195.48;60.40;;;;;;;-0.83;100.00;102176.81;5075007;28;20028;-70
2022/01/16 02:00:19;;;;;;;225.32;64.57;;;;;;;-0.82;100.00;102186.38;5076419;28;20060;-71
2022/01/16 02:03:13;;;;;;;191.70;62.30;;;;;;;-0.83;100.00;102194.97;5076819;28;20103;-70
2022/01/16 02:05:41;;;;;;;222.48;64.75;;;;;;;-0.81;100.00;102203.78;5073782;28;20072;-70
2022/01/16 02:08:06;;;;;;;373.73;73.70;;;;;;;-0.85;100.00;102208.63;5076311;28;20034;-70
2022/01/16 02:10:34;;;;;;;262.45;61.90;;;;;;;-0.88;100.00;102209.31;5076115;28;20025;-70
2022/01/16 02:13:04;;;;;;;277.88;65.28;;;;;;;-0.87;100.00;102208.53;5076542;28;20074;-70
2022/01/16 02:29:40;;;;;;;220.10;59.10;;;;;;;-1.17;100.00;102221.06;5072720;28;20048;-70
2022/01/16 02:34:35;;;;;;;179.55;59.38;;;;;;;-1.20;100.00;102231.22;5076170;28;20033;-70
2022/01/16 02:37:06;;;;;;;213.60;60.60;;;;;;;-1.24;100.00;102235.28;5071442;28;20433;-70
2022/01/16 02:39:36;;;;;;;200.95;61.70;;;;;;;-1.26;100.00;102234.25;5072775;28;20060;-70
2022/01/16 02:42:06;;;;;;;186.40;60.70;;;;;;;-1.29;100.00;102222.75;5072185;28;20433;-70
2022/01/16 02:44:41;;;;;;;175.05;59.25;;;;;;;-1.25;100.00;102224.78;5072455;28;20100;-70
2022/01/16 02:47:11;;;;;;;199.45;63.03;;;;;;;-1.25;100.00;102211.81;5072726;28;20038;-70
2022/01/16 02:49:40;;;;;;;191.90;58.97;;;;;;;-1.31;100.00;102203.56;5075623;28;20490;-70
2022/01/16 02:52:11;;;;;;;216.82;62.40;;;;;;;-1.27;100.00;102210.78;5075757;28;20470;-70
2022/01/16 02:54:39;;;;;;;200.43;63.97;;;;;;;-1.29;100.00;102202.00;5075462;28;20100;-70
2022/01/16 02:57:07;;;;;;;201.45;62.70;;;;;;;-1.27;100.00;102192.63;5075563;28;20017;-71
2022/01/16 02:59:34;;;;;;;192.07;65.45;;;;;;;-1.20;100.00;102181.91;5075585;28;20379;-70
2022/01/16 03:02:00;;;;;;;178.45;68.45;;;;;;;-1.17;100.00;102176.94;5075267;28;20028;-70
2022/01/16 03:04:27;;;;;;;174.68;64.72;;;;;;;-1.16;100.00;102173.56;5075388;28;20029;-70
2022/01/16 03:06:52;;;;;;;204.85;70.47;;;;;;;-1.17;100.00;102169.16;5075230;28;20048;-70
2022/01/16 03:09:19;;;;;;;202.20;70.22;;;;;;;-1.14;100.00;102166.78;5074933;28;20445;-70
2022/01/16 03:11:49;;;;;;;179.30;68.40;;;;;;;-1.08;100.00;102166.31;5075165;28;20021;-70
2022/01/16 03:14:20;;;;;;;200.88;72.40;;;;;;;-1.11;100.00;102163.50;5075572;28;20020;-70
2022/01/16 03:16:50;;;;;;;174.23;72.15;;;;;;;-1.04;100.00;102165.75;5074927;28;20031;-69
2022/01/16 03:22:03;;;;;;;188.50;74.60;;;;;;;-1.01;100.00;102162.47;5071399;28;20047;-70
2022/01/16 03:24:34;;;;;;;186.55;75.20;;;;;;;-0.97;100.00;102152.44;5071246;28;20016;-70
2022/01/16 03:27:04;;;;;;;181.02;75.93;;;;;;;-0.94;100.00;102154.34;5071266;28;20024;-72
2022/01/16 03:29:30;;;;;;;182.80;75.35;;;;;;;-0.92;100.00;102151.06;5070823;28;20067;-71
2022/01/16 03:31:58;;;;;;;177.48;73.78;;;;;;;-0.87;100.00;102156.59;5074953;28;20039;-72
2022/01/16 03:34:24;;;;;;;182.00;78.07;;;;;;;-0.84;100.00;102141.22;5074892;28;20020;-72
2022/01/16 03:36:50;;;;;;;189.85;81.20;;;;;;;-0.83;100.00;102153.44;5074602;28;20032;-72
2022/01/16 03:39:15;;;;;;;183.35;79.38;;;;;;;-0.79;100.00;102150.22;5074668;28;20021;-72
2022/01/16 03:41:41;;;;;;;172.57;75.63;;;;;;;-0.74;100.00;102145.38;5074724;28;20029;-72
2022/01/16 03:44:07;;;;;;;185.00;81.38;;;;;;;-0.73;100.00;102141.97;5074497;28;20064;-72
2022/01/16 03:46:36;;;;;;;178.23;78.55;;;;;;;-0.71;100.00;102148.19;5074631;28;20048;-72
2022/01/16 03:49:14;;;;;;;177.23;78.32;;;;;;;-0.66;100.00;102146.81;5071232;28;20024;-72
2022/01/16 03:51:40;;;;;;;177.20;79.10;;;;;;;-0.64;100.00;102149.53;5071863;28;20467;-72
2022/01/16 03:54:08;;;;;;;171.32;76.93;;;;;;;-0.60;100.00;102148.94;5074242;28;20379;-71
2022/01/16 03:56:34;;;;;;;166.82;76.00;;;;;;;-0.59;100.00;102142.97;5074449;28;20032;-72
2022/01/16 03:58:59;;;;;;;169.27;78.50;;;;;;;-0.55;100.00;102145.00;5074116;28;20383;-71
2022/01/16 04:01:25;;;;;;;174.23;80.95;;;;;;;-0.55;100.00;102151.06;5074119;28;20118;-72
2022/01/16 04:03:52;;;;;;;160.43;78.22;;;;;;;-0.50;100.00;102153.09;5074608;28;20387;-71
2022/01/16 04:06:19;;;;;;;161.68;77.30;;;;;;;-0.48;100.00;102151.50;5073873;28;20055;-72
2022/01/16 04:08:45;;;;;;;153.63;74.93;;;;;;;-0.48;100.00;102154.09;5074278;28;20060;-72
2022/01/16 04:11:11;;;;;;;152.82;76.22;;;;;;;-0.45;100.00;102152.63;5074196;28;20021;-72
2022/01/16 04:13:40;;;;;;;156.50;79.65;;;;;;;-0.44;100.00;102149.22;5072816;28;20047;-71
2022/01/16 04:16:05;;;;;;;152.60;76.40;;;;;;;-0.40;100.00;102143.44;5074090;28;20421;-72
2022/01/16 04:18:31;;;;;;;147.13;74.40;;;;;;;-0.36;100.00;102148.06;5074156;28;20020;-72
2022/01/16 04:20:57;;;;;;;147.85;76.95;;;;;;;-0.38;100.00;102139.28;5073391;28;20099;-72
2022/01/16 04:23:22;;;;;;;140.57;73.32;;;;;;;-0.37;100.00;102137.56;5072337;28;20036;-72
2022/01/16 04:25:48;;;;;;;147.00;75.28;;;;;;;-0.37;100.00;102137.56;5073942;28;20102;-71
2022/01/16 04:28:13;;;;;;;146.27;78.97;;;;;;;-0.39;100.00;102150.47;5073906;28;20028;-72
2022/01/16 04:30:38;;;;;;;139.02;75.07;;;;;;;-0.35;100.00;102148.97;5073492;28;20033;-72
2022/01/16 04:33:04;;;;;;;142.90;77.85;;;;;;;-0.35;100.00;102138.56;5073685;28;20056;-72
2022/01/16 04:35:29;;;;;;;139.93;73.07;;;;;;;-0.31;100.00;102139.69;5073626;28;20463;-72
2022/01/16 04:37:54;;;;;;;140.85;77.00;;;;;;;-0.29;100.00;102143.28;5073421;28;20047;-72
2022/01/16 04:40:20;;;;;;;137.23;73.45;;;;;;;-0.28;100.00;102142.50;5073627;28;20020;-72
2022/01/16 04:45:29;;;;;;;142.05;77.38;;;;;;;-0.25;100.00;102132.31;5069650;28;20070;-72
2022/01/16 04:47:55;;;;;;;133.05;75.78;;;;;;;-0.25;100.00;102132.31;5073511;28;20017;-72
2022/01/16 04:50:22;;;;;;;142.93;79.57;;;;;;;-0.24;100.00;102129.81;5073177;28;20032;-72
2022/01/16 04:52:48;;;;;;;136.80;76.20;;;;;;;-0.22;100.00;102137.72;5073143;28;20475;-72
2022/01/16 04:55:15;;;;;;;134.98;75.70;;;;;;;-0.21;100.00;102129.13;5073315;28;20025;-72
2022/01/16 04:57:41;;;;;;;131.85;74.85;;;;;;;-0.18;100.00;102127.63;5073246;28;20032;-72
2022/01/16 05:00:11;;;;;;;141.48;78.30;;;;;;;-0.16;100.00;102119.97;5073033;28;20029;-72
2022/01/16 05:02:36;;;;;;;142.52;81.55;;;;;;;-0.16;100.00;102119.97;5073109;28;20032;-69
2022/01/16 05:05:02;;;;;;;139.60;78.47;;;;;;;-0.13;100.00;102127.97;5073022;28;20032;-69
2022/01/16 05:07:27;;;;;;;142.23;83.38;;;;;;;-0.10;100.00;102120.38;5072698;28;20051;-70
2022/01/16 05:09:52;;;;;;;140.30;79.55;;;;;;;-0.08;100.00;102118.75;5073131;28;20024;-69
2022/01/16 05:12:26;;;;;;;136.63;78.82;;;;;;;-0.09;100.00;102114.34;5072838;28;20020;-70
2022/01/16 05:17:49;;;;;;;145.25;82.18;;;;;;;-0.06;100.00;102117.19;5025451;28;20479;-70
2022/01/16 05:20:16;;;;;;;145.88;80.78;;;;;;;-0.04;100.00;102115.59;5030302;28;20030;-70
2022/01/16 05:22:41;;;;;;;141.10;78.00;;;;;;;0.03;100.00;102109.09;5030795;28;20044;-69
2022/01/16 05:25:08;;;;;;;141.93;84.35;;;;;;;0.02;100.00;102106.41;5030598;28;20037;-70
2022/01/16 05:27:35;;;;;;;144.07;83.22;;;;;;;0.05;100.00;102111.81;5030660;28;20117;-69
2022/01/16 05:30:00;;;;;;;143.30;81.10;;;;;;;0.06;100.00;102113.59;5019328;28;20037;-70
2022/01/16 05:32:26;;;;;;;150.77;83.70;;;;;;;0.04;100.00;102112.59;5029325;28;20030;-70
2022/01/16 05:34:51;;;;;;;142.50;80.82;;;;;;;0.10;100.00;102124.31;5030478;28;20029;-70
2022/01/16 05:37:16;;;;;;;141.68;80.43;;;;;;;0.11;100.00;102115.69;5030765;28;20030;-69
2022/01/16 05:39:44;;;;;;;147.10;84.13;;;;;;;0.17;100.00;102112.63;5030339;28;20106;-70
2022/01/16 05:42:11;;;;;;;144.68;82.75;;;;;;;0.21;100.00;102122.44;5030397;28;20102;-70
2022/01/16 05:44:36;;;;;;;146.50;81.45;;;;;;;0.22;100.00;102121.66;5030743;28;20037;-70
2022/01/16 05:47:04;;;;;;;152.38;88.00;;;;;;;0.20;100.00;102125.81;5030499;28;20085;-70
2022/01/16 05:49:30;;;;;;;150.80;85.40;;;;;;;0.26;100.00;102141.88;5026420;28;20082;-70
2022/01/16 05:51:55;;;;;;;152.15;87.38;;;;;;;0.25;100.00;102140.06;5030606;28;20486;-70
2022/01/16 05:54:20;;;;;;;144.57;80.63;;;;;;;0.25;100.00;102139.13;5067551;28;20090;-69
2022/01/16 05:56:46;;;;;;;154.20;87.65;;;;;;;0.29;100.00;102138.53;5072400;28;20024;-69
2022/01/16 05:59:11;;;;;;;158.55;88.93;;;;;;;0.30;100.00;102141.25;5072737;28;20467;-70
2022/01/16 06:01:36;;;;;;;158.85;90.78;;;;;;;0.31;100.00;102130.03;5072271;28;20032;-70
2022/01/16 06:04:02;;;;;;;158.20;90.75;;;;;;;0.35;100.00;102125.97;5072838;28;20085;-70
2022/01/16 06:06:28;;;;;;;161.63;92.93;;;;;;;0.32;100.00;102128.34;5065495;28;20033;-70
2022/01/16 06:08:53;;;;;;;158.18;91.07;;;;;;;0.38;100.00;102128.75;5064210;28;20048;-70
2022/01/16 06:11:21;;;;;;;157.70;89.50;;;;;;;0.42;100.00;102125.53;5060261;28;20035;-70
2022/01/16 06:13:47;;;;;;;150.85;85.45;;;;;;;0.49;100.00;102135.56;5062620;28;20033;-70
2022/01/16 06:16:12;;;;;;;160.45;86.75;;;;;;;0.50;100.00;102136.47;5063383;28;20028;-71
2022/01/16 06:18:38;;;;;;;155.65;88.22;;;;;;;0.56;100.00;102136.88;5065486;28;20608;-69
2022/01/16 06:21:03;;;;;;;159.27;87.25;;;;;;;0.59;100.00;102138.78;5057769;28;20021;-69
2022/01/16 06:23:28;;;;;;;154.52;91.88;;;;;;;0.62;100.00;102138.97;5071962;28;20119;-69
2022/01/16 06:25:56;;;;;;;156.00;88.03;;;;;;;0.65;100.00;102131.38;5066654;28;20036;-69
2022/01/16 06:28:27;;;;;;;157.38;88.28;;;;;;;0.67;100.00;102130.66;5073180;28;20017;-69
2022/01/16 06:30:52;;;;;;;153.73;90.00;;;;;;;0.75;100.00;102140.69;5071251;28;20096;-70
2022/01/16 06:33:19;;;;;;;154.35;89.93;;;;;;;0.76;100.00;102143.38;5065538;28;20020;-70
2022/01/16 06:35:44;;;;;;;151.00;87.10;;;;;;;0.77;100.00;102145.19;5064145;28;20028;-68
2022/01/16 06:38:09;;;;;;;151.20;86.95;;;;;;;0.83;100.00;102162.88;5071512;28;20077;-70
2022/01/16 06:40:35;;;;;;;147.13;88.43;;;;;;;0.88;100.00;102166.72;5067611;28;20028;-72
2022/01/16 06:43:00;;;;;;;146.50;85.03;;;;;;;0.91;100.00;102166.91;5069834;28;20106;-70
2022/01/16 06:45:26;;;;;;;135.48;76.57;;;;;;;0.93;100.00;102170.50;5072017;28;20122;-70
2022/01/16 06:47:51;;;;;;;148.75;89.95;;;;;;;0.94;100.00;102172.31;5073519;28;20074;-72
2022/01/16 06:50:17;;;;;;;142.93;79.85;;;;;;;0.93;100.00;102157.47;5075010;28;20040;-70
2022/01/16 06:52:43;;;;;;;145.25;84.13;;;;;;;0.97;100.00;102172.50;5068905;28;20078;-71
2022/01/16 06:55:08;;;;;;;143.70;82.53;;;;;;;0.99;100.00;102170.91;5072197;28;20020;-71
2022/01/16 06:57:34;;;;;;;141.13;79.53;;;;;;;1.03;100.00;102169.38;5067015;28;20032;-69
2022/01/16 06:59:59;;;;;;;136.73;78.95;;;;;;;1.07;100.00;102178.31;5068008;28;20451;-69
2022/01/16 07:02:25;;;;;;;132.20;76.43;;;;;;;1.12;100.00;102182.09;5067051;28;20115;-69
2022/01/16 07:04:50;;;;;;;126.25;74.90;;;;;;;1.11;100.00;102182.94;5062469;28;20116;-70
2022/01/16 07:07:15;;;;;;;130.30;77.68;;;;;;;1.12;100.00;102182.09;5073480;28;20052;-71
2022/01/16 07:09:41;;;;;;;125.47;74.28;;;;;;;1.17;100.00;102178.09;5075453;28;20490;-71
2022/01/16 07:12:07;;;;;;;117.05;71.40;;;;;;;1.21;100.00;102186.22;5074983;28;20039;-72
2022/01/16 07:14:33;;;;;;;115.38;69.47;;;;;;;1.25;100.00;102187.28;5075433;28;20020;-71
2022/01/16 07:16:58;;;;;;;113.05;66.05;;;;;;;1.27;100.00;102198.72;5075099;28;20490;-71
2022/01/16 07:19:23;;;;;;;112.72;68.57;;;;;;;1.29;100.00;102202.31;5074993;28;20016;-71
2022/01/16 07:21:49;;;;;;;107.63;63.53;;;;;;;1.31;100.00;102218.06;5075140;28;20112;-71
2022/01/16 07:24:16;;;;;;;114.75;68.78;;;;;;;1.34;100.00;102220.84;5074958;28;20044;-72
2022/01/16 07:26:44;;;;;;;110.65;64.88;;;;;;;1.36;100.00;102225.34;5074757;28;20037;-71
2022/01/16 07:29:10;;;;;;;106.75;64.43;;;;;;;1.37;100.00;102231.50;5075327;28;20035;-71
2022/01/16 07:31:38;;;;;;;106.15;64.18;;;;;;;1.37;100.00;102228.88;5074794;28;20387;-72
2022/01/16 07:34:05;;;;;;;102.38;60.92;;;;;;;1.41;100.00;102233.47;5074832;28;20028;-72
2022/01/16 07:36:31;;;;;;;100.97;61.42;;;;;;;1.46;100.00;102241.59;5074881;28;20029;-72
2022/01/16 07:38:56;;;;;;;100.45;62.40;;;;;;;1.50;100.00;102251.41;5074881;28;20038;-72
2022/01/16 07:41:21;;;;;;;100.18;62.22;;;;;;;1.52;100.00;102244.59;5074468;28;20471;-72
2022/01/16 07:43:46;;;;;;;91.88;57.83;;;;;;;1.55;100.00;102234.34;5074918;28;20032;-71
2022/01/16 07:46:12;;;;;;;95.38;58.67;;;;;;;1.58;100.00;102241.47;5074472;28;20067;-72
2022/01/16 07:48:37;;;;;;;94.03;58.75;;;;;;;1.60;100.00;102239.84;5074449;28;20021;-71
2022/01/16 07:51:04;;;;;;;91.75;57.28;;;;;;;1.65;100.00;102255.00;5074650;28;20017;-72
2022/01/16 07:53:29;;;;;;;89.13;55.78;;;;;;;1.66;100.00;102246.38;5074589;28;20379;-72
2022/01/16 07:55:54;;;;;;;87.57;55.50;;;;;;;1.68;100.00;102259.50;5073350;28;20099;-72
2022/01/16 07:58:20;;;;;;;87.53;55.67;;;;;;;1.67;100.00;102268.13;5074370;28;20024;-72
2022/01/16 08:00:45;;;;;;;90.82;55.55;;;;;;;1.70;100.00;102271.84;5074253;28;20111;-72
2022/01/16 08:03:10;;;;;;;92.35;57.78;;;;;;;1.72;100.00;102267.59;5072905;28;20036;-72
2022/01/16 08:05:36;;;;;;;92.35;58.03;;;;;;;1.78;100.00;102279.22;5073935;28;20074;-72
2022/01/16 08:08:01;;;;;;;90.38;55.63;;;;;;;1.79;100.00;102274.13;5074311;28;20028;-72
2022/01/16 08:10:26;;;;;;;92.65;56.75;;;;;;;1.81;100.00;102276.81;5074214;28;20454;-72
2022/01/16 08:12:52;;;;;;;89.82;55.22;;;;;;;1.82;100.00;102279.53;5074015;28;20090;-72
2022/01/16 08:15:17;;;;;;;93.10;56.85;;;;;;;1.85;100.00;102268.34;5073768;28;20020;-71
2022/01/16 08:17:42;;;;;;;87.38;53.42;;;;;;;1.88;100.00;102260.75;5074259;28;20043;-72
2022/01/16 08:20:09;;;;;;;90.38;55.22;;;;;;;1.91;100.00;102256.63;5073962;28;20158;-71
2022/01/16 08:22:35;;;;;;;95.32;58.00;;;;;;;1.90;100.00;102262.63;5073940;28;20028;-72
2022/01/16 08:25:01;;;;;;;88.25;54.03;;;;;;;1.91;100.00;102247.91;5073983;28;20391;-72
2022/01/16 08:27:26;;;;;;;93.70;57.85;;;;;;;1.93;100.00;102251.50;5073683;28;20017;-71
2022/01/16 08:29:51;;;;;;;97.55;58.83;;;;;;;1.92;100.00;102252.28;5073419;28;20455;-72
2022/01/16 08:32:17;;;;;;;86.18;52.95;;;;;;;1.98;100.00;102244.88;5073868;28;20024;-72
2022/01/16 08:34:42;;;;;;;91.70;55.65;;;;;;;2.02;100.00;102241.63;5071905;28;20570;-72
2022/01/16 08:37:08;;;;;;;94.28;55.03;;;;;;;2.05;100.00;102246.13;5069587;28;20029;-72
2022/01/16 08:39:33;;;;;;;92.07;54.58;;;;;;;2.07;100.00;102248.03;5073543;28;20046;-72
2022/01/16 08:41:58;;;;;;;91.30;55.95;;;;;;;2.09;100.00;102251.63;5073076;28;20399;-72
2022/01/16 08:44:24;;;;;;;91.80;53.47;;;;;;;2.07;100.00;102247.16;5073049;28;20024;-72
2022/01/16 08:46:49;;;;;;;90.00;52.72;;;;;;;2.13;100.00;102254.44;5073251;28;20081;-72
2022/01/16 08:49:14;;;;;;;91.13;52.45;;;;;;;2.14;100.00;102248.41;5073287;28;20052;-72
2022/01/16 08:51:41;;;;;;;94.38;54.90;;;;;;;2.14;100.00;102259.75;5073314;28;20024;-72
2022/01/16 08:54:06;;;;;;;88.82;53.58;;;;;;;2.17;100.00;102264.25;5072766;28;20013;-72
2022/01/16 08:56:32;;;;;;;91.57;54.55;;;;;;;2.20;100.00;102259.19;5062443;28;20031;-72
2022/01/16 08:58:57;;;;;;;88.22;51.33;;;;;;;2.22;100.00;102273.25;5068388;28;20044;-72
2022/01/16 09:01:22;;;;;;;99.93;55.40;;;;;;;2.24;100.00;102279.47;5072825;28;20021;-72
2022/01/16 09:03:48;;;;;;;90.68;51.78;;;;;;;2.28;100.00;102275.34;5073166;28;20471;-72
2022/01/16 09:06:15;;;;;;;95.93;54.28;;;;;;;2.33;100.00;102284.34;5072741;28;20051;-72
2022/01/16 09:08:40;;;;;;;98.22;55.20;;;;;;;2.31;100.00;102285.97;5072827;28;20042;-72
2022/01/16 09:11:07;;;;;;;97.35;56.20;;;;;;;2.35;100.00;102280.13;5073193;28;20028;-71
2022/01/16 09:13:32;;;;;;;93.97;54.03;;;;;;;2.37;100.00;102286.34;5072945;28;20020;-71
2022/01/16 09:15:58;;;;;;;94.63;52.88;;;;;;;2.44;100.00;102291.13;5072794;28;20093;-69
2022/01/16 09:18:23;;;;;;;100.45;54.30;;;;;;;2.47;100.00;102291.31;5072945;28;20012;-71
2022/01/16 09:20:49;;;;;;;104.35;56.38;;;;;;;2.50;100.00;102293.22;5073239;28;20036;-70
2022/01/16 09:23:14;;;;;;;96.60;53.33;;;;;;;2.54;100.00;102305.66;5064896;28;20052;-69
2022/01/16 09:25:40;;;;;;;97.75;53.03;;;;;;;2.57;100.00;102305.81;5061081;28;20028;-71
2022/01/16 09:28:06;;;;;;;99.68;55.47;;;;;;;2.58;100.00;102305.03;5061248;28;20107;-70
2022/01/16 09:30:32;;;;;;;102.03;54.72;;;;;;;2.63;100.00;102305.28;5060321;28;20468;-71
2022/01/16 09:32:57;;;;;;;105.47;54.08;;;;;;;2.65;100.00;102314.09;5072694;28;20383;-70
2022/01/16 09:35:23;;;;;;;101.95;53.85;;;;;;;2.69;100.00;102323.94;5072644;28;20033;-71
2022/01/16 09:37:49;;;;;;;108.10;57.08;;;;;;;2.67;100.00;102317.72;5066870;28;20025;-70
2022/01/16 09:40:18;;;;;;;114.47;56.78;;;;;;;2.69;100.00;102322.22;5060975;28;20056;-70
2022/01/16 09:42:43;;;;;;;113.60;57.13;;;;;;;2.71;100.00;102328.44;5058343;28;20051;-70
2022/01/16 09:45:11;;;;;;;117.40;59.53;;;;;;;2.69;100.00;102327.44;5063343;28;20475;-70
2022/01/16 09:47:37;;;;;;;120.45;58.20;;;;;;;2.68;100.00;102329.97;5061070;28;20035;-68
2022/01/16 09:50:05;;;;;;;119.60;59.08;;;;;;;2.67;100.00;102331.69;5060741;28;20016;-70
2022/01/16 09:52:35;;;;;;;125.03;61.60;;;;;;;2.65;100.00;102340.22;5060085;28;20032;-70
2022/01/16 09:55:01;;;;;;;130.07;61.28;;;;;;;2.66;100.00;102332.47;5060780;28;20043;-70
2022/01/16 09:57:26;;;;;;;129.80;59.45;;;;;;;2.70;100.00;102328.34;5064462;28;20468;-69
2022/01/16 09:59:52;;;;;;;129.63;58.13;;;;;;;2.70;100.00;102338.81;5064769;28;20442;-69
2022/01/16 10:02:17;;;;;;;138.18;64.72;;;;;;;2.75;100.00;102339.97;5061995;28;20549;-70
2022/01/16 10:04:43;;;;;;;137.70;61.65;;;;;;;2.73;100.00;102345.09;5064010;28;20024;-69
2022/01/16 10:07:12;;;;;;;135.05;60.40;;;;;;;2.77;100.00;102354.94;5068340;28;20048;-72
2022/01/16 10:09:42;;;;;;;129.35;58.08;;;;;;;2.80;100.00;102359.44;5068679;28;20505;-72
2022/01/16 10:12:17;;;;;;;134.25;61.20;;;;;;;2.81;100.00;102371.69;5067172;28;20028;-73
2022/01/16 10:14:49;;;;;;;141.63;63.13;;;;;;;2.85;100.00;102364.94;5069694;28;20036;-71
2022/01/16 10:17:14;;;;;;;136.45;59.85;;;;;;;2.87;100.00;102363.31;5065181;28;20037;-70
2022/01/16 10:19:40;;;;;;;140.57;59.67;;;;;;;2.84;100.00;102369.28;5070204;28;20043;-71
2022/01/16 10:22:11;;;;;;;153.68;63.08;;;;;;;2.87;100.00;102371.13;5075333;28;20502;-71
2022/01/16 10:24:39;;;;;;;140.15;60.47;;;;;;;2.92;100.00;102368.00;5072162;28;20032;-71
2022/01/16 10:27:07;;;;;;;129.38;54.78;;;;;;;2.96;100.00;102370.00;5071100;28;20024;-68
2022/01/16 10:29:35;;;;;;;139.40;57.80;;;;;;;3.05;100.00;102377.47;5073514;28;20538;-70
2022/01/16 10:32:20;;;;;;;133.18;58.40;;;;;;;3.06;100.00;102380.97;5074765;28;20031;-72
2022/01/16 10:34:49;;;;;;;139.02;60.17;;;;;;;3.06;100.00;102375.75;5065269;28;20051;-69
2022/01/16 10:37:30;;;;;;;140.45;59.50;;;;;;;3.16;100.00;102369.38;5073338;28;20067;-71
2022/01/16 10:40:04;;;;;;;134.73;57.28;;;;;;;3.16;100.00;102378.13;5069473;28;20028;-72
2022/01/16 10:42:31;;;;;;;137.40;57.25;;;;;;;3.24;100.00;102378.56;5072943;28;21325;-73
2022/01/16 10:45:09;;;;;;;136.40;58.25;;;;;;;3.17;100.00;102372.06;5073431;28;20505;-71
2022/01/16 10:47:42;;;;;;;133.70;57.53;;;;;;;3.26;100.00;102376.94;5074252;28;20036;-67
2022/01/16 10:50:32;;;;;;;120.40;53.63;;;;;;;3.32;100.00;102385.16;5074462;28;20032;-71
2022/01/16 10:53:05;;;;;;;127.47;56.20;;;;;;;3.43;100.00;102377.94;4996846;28;20047;-71
2022/01/16 10:55:31;;;;;;;120.57;53.03;;;;;;;3.59;100.00;102374.47;4991744;28;20505;-68
2022/01/16 10:58:26;;;;;;;113.03;53.20;;;;;;;3.71;100.00;102377.78;4998032;28;20042;-71
2022/01/16 11:01:00;;;;;;;104.88;51.85;;;;;;;3.64;100.00;102365.16;4995728;28;20030;-68
2022/01/16 11:03:26;;;;;;;105.38;50.90;;;;;;;3.62;100.00;102390.34;4991471;28;20498;-68
2022/01/16 11:05:53;;;;;;;105.35;48.88;;;;;;;3.53;100.00;102385.50;4990976;28;20042;-71
2022/01/16 11:08:23;;;;;;;106.20;50.53;;;;;;;3.48;100.00;102384.31;4996608;28;20110;-68
2022/01/16 11:10:51;;;;;;;101.85;48.70;;;;;;;3.46;100.00;102386.84;4995996;28;20076;-72
2022/01/16 11:13:18;;;;;;;105.68;49.08;;;;;;;3.44;100.00;102379.75;4992149;28;20050;-72
2022/01/16 11:15:48;;;;;;;111.13;50.33;;;;;;;3.45;100.00;102390.28;4996521;28;20532;-72
2022/01/16 11:18:14;;;;;;;109.55;50.75;;;;;;;3.42;100.00;102391.81;4990962;28;20054;-71
2022/01/16 11:20:44;;;;;;;105.35;47.55;;;;;;;3.38;100.00;102395.97;4994254;28;20350;-70
2022/01/16 11:25:56;;;;;;;102.75;43.40;;;;;;;3.43;100.00;102376.19;4993049;28;20046;-69
2022/01/16 11:28:23;;;;;;;112.28;53.00;;;;;;;3.39;100.00;102392.53;4992046;28;20038;-73
2022/01/16 11:30:51;;;;;;;101.95;46.95;;;;;;;3.42;100.00;102384.88;5056709;28;20075;-72
2022/01/16 11:33:17;;;;;;;116.70;52.78;;;;;;;3.46;100.00;102394.69;5071056;28;20116;-72
2022/01/16 11:35:49;;;;;;;107.32;50.88;;;;;;;3.48;100.00;102393.06;5072853;28;20074;-72
2022/01/16 11:38:19;;;;;;;104.95;49.75;;;;;;;3.51;100.00;102388.81;5067595;28;20025;-72